LFML/MRS METAR and TAF weather

Enter ICAO airport designator
Station Type Date Time Source
LFML METAR 2021/04/18 02:00 UTC NOAA

LFML 180200Z AUTO VRB02KT CAVOK 04/03 Q1015 NOSIG


Station Type Date Time Source
LFML Decoded METAR 2021/04/18 02:00 UTC NOAA

Marseille / Marignane, France (LFML) 43-27N 005-14E 36M
Apr 17, 2021 - 10:00 PM EDT / 2021.04.18 0200 UTC
Wind: Variable at 2 MPH (2 KT):0
Visibility: greater than 7 mile(s):0
Temperature: 39 F (4 C)
Dew Point: 37 F (3 C)
Relative Humidity: 93%
Pressure (altimeter): 29.97 in. Hg (1015 hPa)
ob: LFML 180200Z AUTO VRB02KT CAVOK 04/03 Q1015 NOSIG
cycle: 2

Station Type Date Time Source
LFML TAF 2021/04/18 03:24 UTC NOAA

TAF TAF LFML 180200Z 1803/1909 VRB05KT CAVOK TX18/1814Z TN04/1805Z
BECMG 1811/1814 31012KT
TEMPO 1814/1821 32015G25KT PROB40
TEMPO 1814/1818 FEW060TCU PROB30
TEMPO 1814/1817 SHRA FEW050CB
TEMPO 1903/1909 VRB04KT

Example: see airport list